Time;durP1;ratioP1;P1;durP2;ratioP2;P2;SDS_P1;SDS_P2;PMS_P1;PMS_P2;Temp;Humidity;BMP_temperature;BMP_pressure;BME280_temperature;BME280_humidity;BME280_pressure;Samples;Min_cycle;Max_cycle;Signal;HPM_P1;HPM_P2
2021/08/04 00:00:46;;;;;;;1.57;1.40;;;15.00;99.90;;;;;;5038378;28;20195;-44
2021/08/04 00:03:14;;;;;;;1.60;1.50;;;15.00;99.90;;;;;;5045464;28;20199;-46
2021/08/04 00:05:40;;;;;;;1.20;1.20;;;15.00;99.90;;;;;;5043173;28;20226;-41
2021/08/04 00:08:07;;;;;;;1.50;1.40;;;15.00;99.90;;;;;;5041385;28;20204;-46
2021/08/04 00:10:33;;;;;;;1.40;1.27;;;15.00;99.90;;;;;;5025622;28;20207;-47
2021/08/04 00:13:00;;;;;;;2.20;1.40;;;14.90;99.90;;;;;;5034353;28;20211;-46
2021/08/04 00:15:27;;;;;;;2.57;1.20;;;14.90;99.90;;;;;;5042871;28;20210;-44
2021/08/04 00:17:54;;;;;;;2.40;1.20;;;14.90;99.90;;;;;;5037758;28;20218;-42
2021/08/04 00:20:22;;;;;;;1.03;1.00;;;14.90;99.90;;;;;;5040816;28;20274;-44
2021/08/04 00:22:48;;;;;;;1.63;1.53;;;14.80;99.90;;;;;;5038345;28;20207;-46
2021/08/04 00:25:15;;;;;;;1.90;0.97;;;14.80;99.90;;;;;;5030814;28;20211;-42
2021/08/04 00:27:41;;;;;;;1.97;1.07;;;14.70;99.90;;;;;;5044175;28;20218;-42
2021/08/04 00:30:09;;;;;;;1.47;1.37;;;14.70;99.90;;;;;;5047335;28;20203;-44
2021/08/04 00:32:36;;;;;;;2.10;1.10;;;14.70;99.90;;;;;;5045283;28;20193;-43
2021/08/04 00:35:04;;;;;;;2.07;1.50;;;14.70;99.90;;;;;;5043067;28;20199;-41
2021/08/04 00:37:32;;;;;;;1.30;1.20;;;14.70;99.90;;;;;;5044467;28;20289;-46
2021/08/04 00:39:59;;;;;;;1.83;1.70;;;14.70;99.90;;;;;;5025204;28;20415;-43
2021/08/04 00:42:25;;;;;;;1.60;1.50;;;14.80;99.90;;;;;;5039520;28;20200;-44
2021/08/04 00:44:53;;;;;;;1.30;1.20;;;14.80;99.90;;;;;;5041610;28;20968;-47
2021/08/04 00:47:20;;;;;;;1.93;1.50;;;14.80;99.90;;;;;;5047050;28;20211;-44
2021/08/04 00:49:47;;;;;;;1.17;1.10;;;14.90;99.90;;;;;;5040830;28;20276;-44
2021/08/04 00:52:15;;;;;;;1.30;1.20;;;14.90;99.90;;;;;;5044991;28;20203;-46
2021/08/04 00:54:42;;;;;;;1.53;1.40;;;14.90;99.90;;;;;;5045703;28;20771;-41
2021/08/04 00:57:09;;;;;;;1.40;1.30;;;14.90;99.90;;;;;;5029226;28;20261;-43
2021/08/04 00:59:36;;;;;;;1.80;1.70;;;14.80;99.90;;;;;;5044526;28;20298;-42
2021/08/04 01:02:10;;;;;;;2.37;1.60;;;14.80;99.90;;;;;;5044195;28;20215;-46
2021/08/04 01:04:43;;;;;;;2.70;1.70;;;14.70;99.90;;;;;;5044169;28;20290;-49
2021/08/04 01:07:18;;;;;;;3.20;1.50;;;14.70;99.90;;;;;;5044800;28;20254;-45
2021/08/04 01:09:49;;;;;;;1.30;1.20;;;14.70;99.90;;;;;;5041724;28;20203;-44
2021/08/04 01:12:22;;;;;;;1.60;1.50;;;14.70;99.90;;;;;;5028661;28;20277;-42
2021/08/04 01:14:54;;;;;;;4.10;1.67;;;14.70;99.90;;;;;;5039799;28;20199;-44
2021/08/04 01:17:21;;;;;;;1.80;1.40;;;14.70;99.90;;;;;;5045410;28;20557;-45
2021/08/04 01:20:01;;;;;;;3.33;1.40;;;14.60;99.90;;;;;;5039921;28;20191;-46
2021/08/04 01:22:35;;;;;;;1.40;1.30;;;14.60;99.90;;;;;;5045900;28;20226;-43
2021/08/04 01:25:12;;;;;;;1.60;1.50;;;14.60;99.90;;;;;;5043926;28;20812;-42
2021/08/04 01:27:44;;;;;;;2.17;1.33;;;14.70;99.90;;;;;;5026798;28;20222;-43
2021/08/04 01:30:12;;;;;;;1.50;1.40;;;14.70;99.90;;;;;;5044168;28;20206;-41
2021/08/04 01:32:39;;;;;;;3.00;1.73;;;14.70;99.90;;;;;;5045093;28;20210;-43
2021/08/04 01:35:08;;;;;;;2.10;1.50;;;14.60;99.90;;;;;;5043869;28;20818;-43
2021/08/04 01:37:36;;;;;;;5.47;1.80;;;14.70;99.90;;;;;;5042543;28;20227;-46
2021/08/04 01:40:06;;;;;;;2.70;1.77;;;14.70;99.90;;;;;;5042903;28;20247;-41
2021/08/04 01:42:35;;;;;;;1.90;1.80;;;14.60;99.90;;;;;;5028605;28;20578;-46
2021/08/04 01:45:06;;;;;;;2.87;2.00;;;14.60;99.90;;;;;;5049025;28;20249;-45
2021/08/04 01:47:33;;;;;;;2.93;1.87;;;14.60;99.90;;;;;;5043277;28;20235;-44
2021/08/04 01:50:02;;;;;;;2.27;1.80;;;14.50;99.90;;;;;;5040806;28;20188;-46
2021/08/04 01:52:31;;;;;;;2.73;1.90;;;14.60;99.90;;;;;;5043567;28;20736;-44
2021/08/04 01:54:58;;;;;;;1.97;1.77;;;14.60;99.90;;;;;;5040607;28;20965;-44
2021/08/04 01:57:25;;;;;;;1.90;1.80;;;14.50;99.90;;;;;;5043222;28;20711;-44
2021/08/04 01:59:52;;;;;;;4.00;1.87;;;14.50;99.90;;;;;;5023042;28;20196;-45
2021/08/04 02:02:21;;;;;;;1.90;1.80;;;14.60;99.90;;;;;;5043125;28;20306;-41
2021/08/04 02:04:48;;;;;;;2.33;2.00;;;14.50;99.90;;;;;;5040948;28;20197;-45
2021/08/04 02:07:25;;;;;;;2.30;2.03;;;14.50;99.90;;;;;;5044412;28;20254;-44
2021/08/04 02:09:53;;;;;;;1.80;1.63;;;14.40;99.90;;;;;;5038894;28;20244;-45
2021/08/04 02:12:22;;;;;;;2.27;1.97;;;14.40;99.90;;;;;;5043345;28;20294;-46
2021/08/04 02:14:55;;;;;;;2.20;2.00;;;14.40;99.90;;;;;;5023078;28;20195;-45
2021/08/04 02:17:30;;;;;;;4.93;2.83;;;14.40;99.90;;;;;;5042703;28;20212;-45
2021/08/04 02:20:03;;;;;;;2.30;2.10;;;14.30;99.90;;;;;;5042358;28;20692;-45
2021/08/04 02:22:34;;;;;;;2.93;2.13;;;14.30;99.90;;;;;;5046217;28;20553;-44
2021/08/04 02:25:06;;;;;;;2.30;2.10;;;14.40;99.90;;;;;;5040122;28;20211;-44
2021/08/04 02:27:36;;;;;;;3.30;2.17;;;14.30;99.90;;;;;;5042001;28;20208;-47
2021/08/04 02:30:04;;;;;;;2.23;2.03;;;14.20;99.90;;;;;;5023782;28;20929;-47
2021/08/04 02:32:32;;;;;;;3.23;2.00;;;14.20;99.90;;;;;;5043778;28;20198;-42
2021/08/04 02:34:59;;;;;;;2.33;1.97;;;14.20;99.90;;;;;;5041528;28;20202;-45
2021/08/04 02:37:26;;;;;;;2.37;2.17;;;14.20;99.90;;;;;;5044670;28;20223;-45
2021/08/04 02:39:53;;;;;;;2.63;2.43;;;14.20;99.90;;;;;;5040118;28;20942;-47
2021/08/04 02:42:20;;;;;;;2.20;2.07;;;14.10;99.90;;;;;;5042801;28;20203;-41
2021/08/04 02:44:46;;;;;;;2.57;2.07;;;14.10;99.90;;;;;;5025062;28;20229;-46
2021/08/04 02:47:13;;;;;;;3.23;2.37;;;14.00;99.90;;;;;;5041918;28;20218;-43
2021/08/04 02:49:42;;;;;;;2.40;2.20;;;14.00;99.90;;;;;;5038975;28;20776;-47
2021/08/04 02:52:10;;;;;;;2.50;2.13;;;14.00;99.90;;;;;;5041345;28;20191;-43
2021/08/04 02:54:37;;;;;;;2.40;2.20;;;13.90;99.90;;;;;;5041090;28;20203;-43
2021/08/04 02:57:07;;;;;;;2.50;2.30;;;13.90;99.90;;;;;;5041585;28;20199;-42
2021/08/04 02:59:33;;;;;;;2.33;2.17;;;13.90;99.90;;;;;;5038686;28;20669;-44
2021/08/04 03:02:00;;;;;;;4.23;2.80;;;13.90;99.90;;;;;;5022449;28;20210;-45
2021/08/04 03:04:27;;;;;;;4.03;3.67;;;13.90;99.90;;;;;;5043513;28;20206;-44
2021/08/04 03:06:55;;;;;;;4.87;3.83;;;13.80;99.90;;;;;;5039561;28;21022;-48
2021/08/04 03:09:21;;;;;;;3.03;2.83;;;13.80;99.90;;;;;;5042192;28;20210;-44
2021/08/04 03:11:48;;;;;;;3.53;3.23;;;13.70;99.90;;;;;;5038406;28;20201;-44
2021/08/04 03:14:14;;;;;;;4.87;3.50;;;13.80;99.90;;;;;;5044016;28;20195;-42
2021/08/04 03:16:41;;;;;;;5.00;3.67;;;13.90;99.90;;;;;;5018680;28;20219;-46
2021/08/04 03:19:08;;;;;;;6.13;3.53;;;13.80;99.90;;;;;;5042241;28;20869;-43
2021/08/04 03:21:35;;;;;;;7.97;4.20;;;13.80;99.90;;;;;;5041853;28;20219;-45
2021/08/04 03:24:03;;;;;;;4.80;4.17;;;13.80;99.90;;;;;;5041615;28;20202;-45
2021/08/04 03:26:30;;;;;;;4.07;2.53;;;13.80;99.90;;;;;;5044124;28;20219;-45
2021/08/04 03:28:56;;;;;;;5.23;3.43;;;13.90;99.90;;;;;;5039824;28;20183;-46
2021/08/04 03:31:23;;;;;;;4.20;3.17;;;13.90;99.90;;;;;;5042801;28;20725;-45
2021/08/04 03:33:49;;;;;;;3.63;3.27;;;13.80;99.90;;;;;;5023077;28;20211;-48
2021/08/04 03:36:16;;;;;;;4.77;3.17;;;13.80;99.90;;;;;;5043305;28;20199;-44
2021/08/04 03:38:42;;;;;;;4.10;3.20;;;13.80;99.90;;;;;;5040455;28;20700;-44
2021/08/04 03:41:10;;;;;;;5.13;3.10;;;13.80;99.90;;;;;;5042705;28;20199;-45
2021/08/04 03:43:37;;;;;;;3.30;3.10;;;13.80;99.90;;;;;;5042602;28;20214;-44
2021/08/04 03:46:04;;;;;;;3.93;3.03;;;13.80;99.90;;;;;;5043997;28;20350;-43
2021/08/04 03:48:30;;;;;;;3.97;3.57;;;13.80;99.90;;;;;;5028108;28;20219;-50
2021/08/04 03:50:57;;;;;;;4.63;3.40;;;13.80;99.90;;;;;;5039447;28;20910;-43
2021/08/04 03:53:23;;;;;;;4.43;2.90;;;13.70;99.90;;;;;;5043061;28;20198;-43
2021/08/04 03:55:50;;;;;;;4.70;3.13;;;13.80;99.90;;;;;;5038938;28;20187;-45
2021/08/04 03:58:18;;;;;;;4.53;3.33;;;13.80;99.90;;;;;;5045604;28;20222;-44
2021/08/04 04:00:45;;;;;;;3.83;3.53;;;13.80;99.90;;;;;;5035336;28;20199;-44
2021/08/04 04:03:12;;;;;;;3.90;3.47;;;13.80;99.90;;;;;;5044975;28;20204;-44
2021/08/04 04:05:39;;;;;;;3.33;2.83;;;13.80;99.90;;;;;;5030424;28;20315;-44
2021/08/04 04:08:05;;;;;;;2.97;2.67;;;13.80;99.90;;;;;;5040694;28;20223;-42
2021/08/04 04:10:32;;;;;;;3.23;2.93;;;13.80;99.90;;;;;;5042074;28;20188;-43
2021/08/04 04:12:59;;;;;;;6.23;3.20;;;13.80;99.90;;;;;;5038735;28;20208;-44
2021/08/04 04:15:27;;;;;;;3.63;2.70;;;13.90;99.90;;;;;;5043741;28;20195;-44
2021/08/04 04:17:53;;;;;;;4.53;2.77;;;13.80;99.90;;;;;;5046706;28;20203;-45
2021/08/04 04:20:20;;;;;;;3.80;2.90;;;13.80;99.90;;;;;;5028659;28;20272;-44
2021/08/04 04:22:47;;;;;;;4.17;2.67;;;13.80;99.90;;;;;;5044124;28;20188;-44
2021/08/04 04:25:15;;;;;;;2.93;2.63;;;13.80;99.90;;;;;;5047498;28;20195;-43
2021/08/04 04:27:42;;;;;;;5.13;3.17;;;13.90;99.90;;;;;;5043397;28;20211;-45
2021/08/04 04:30:10;;;;;;;3.33;2.20;;;13.90;99.90;;;;;;5039379;28;20199;-44
2021/08/04 04:32:38;;;;;;;2.20;2.03;;;13.90;99.90;;;;;;5034104;28;20237;-47
2021/08/04 04:35:06;;;;;;;2.30;2.13;;;13.90;99.90;;;;;;5029474;28;20204;-41
2021/08/04 04:37:33;;;;;;;3.27;2.23;;;14.00;99.90;;;;;;5033502;28;20334;-48
2021/08/04 04:40:00;;;;;;;2.57;2.03;;;14.00;99.90;;;;;;5035519;28;20215;-40
2021/08/04 04:42:27;;;;;;;2.43;2.23;;;14.00;99.90;;;;;;5047764;28;20680;-44
2021/08/04 04:44:54;;;;;;;2.03;1.83;;;14.00;99.90;;;;;;5047438;28;20212;-40
2021/08/04 04:47:20;;;;;;;2.10;1.93;;;14.10;99.90;;;;;;5041226;28;20281;-45
2021/08/04 04:49:48;;;;;;;2.23;1.90;;;14.20;99.90;;;;;;5047792;28;20191;-42
2021/08/04 04:52:15;;;;;;;1.80;1.70;;;14.20;99.90;;;;;;5021655;28;20872;-43
2021/08/04 04:54:41;;;;;;;2.13;1.73;;;14.20;99.90;;;;;;5045648;28;20652;-42
2021/08/04 04:57:08;;;;;;;5.13;1.80;;;14.20;99.90;;;;;;5040055;28;20211;-45
2021/08/04 04:59:35;;;;;;;2.87;1.87;;;14.30;99.90;;;;;;5046683;28;20701;-41
2021/08/04 05:02:01;;;;;;;2.43;1.57;;;14.30;99.90;;;;;;5036600;28;20195;-48
2021/08/04 05:04:28;;;;;;;2.13;1.50;;;14.40;99.90;;;;;;5043687;28;20569;-45
2021/08/04 05:06:56;;;;;;;1.90;1.80;;;14.40;99.90;;;;;;5023200;28;20211;-46
2021/08/04 05:09:22;;;;;;;4.50;1.87;;;14.50;99.90;;;;;;5033953;28;20196;-42
2021/08/04 05:11:49;;;;;;;2.33;1.40;;;14.50;99.90;;;;;;5043502;28;20196;-44
2021/08/04 05:14:16;;;;;;;2.40;1.90;;;14.60;99.90;;;;;;5030051;28;20200;-42
2021/08/04 05:16:42;;;;;;;3.07;1.73;;;14.60;99.90;;;;;;5043931;28;20563;-45
2021/08/04 05:19:09;;;;;;;3.37;1.50;;;14.60;99.90;;;;;;5040201;28;20215;-44
2021/08/04 05:21:35;;;;;;;1.80;1.70;;;14.70;99.90;;;;;;5044989;28;20695;-45
2021/08/04 05:24:05;;;;;;;2.50;1.60;;;14.70;99.90;;;;;;5021194;28;20215;-44
2021/08/04 05:26:32;;;;;;;2.13;1.53;;;14.80;99.90;;;;;;5043501;28;20219;-46
2021/08/04 05:28:59;;;;;;;2.50;1.77;;;14.80;99.90;;;;;;5037020;28;20214;-43
2021/08/04 05:31:25;;;;;;;4.13;2.33;;;14.90;99.90;;;;;;5041240;28;20198;-48
2021/08/04 05:33:52;;;;;;;2.27;1.33;;;14.90;99.90;;;;;;5040454;28;20200;-47
2021/08/04 05:36:19;;;;;;;1.77;1.50;;;15.00;99.90;;;;;;5032440;28;20218;-47
2021/08/04 05:38:45;;;;;;;3.50;1.70;;;15.00;99.90;;;;;;5016152;28;20215;-45
2021/08/04 05:41:13;;;;;;;2.67;1.43;;;15.00;99.90;;;;;;5030900;28;20195;-41
2021/08/04 05:43:40;;;;;;;1.30;1.20;;;15.10;99.90;;;;;;5031380;28;20204;-43
2021/08/04 05:46:06;;;;;;;1.90;1.30;;;15.20;99.90;;;;;;5038461;28;22006;-45
2021/08/04 05:48:33;;;;;;;2.90;1.23;;;15.20;99.90;;;;;;5022311;28;20212;-41
2021/08/04 05:51:00;;;;;;;3.07;1.50;;;15.30;99.90;;;;;;5038818;28;20214;-45
2021/08/04 05:53:26;;;;;;;2.27;1.40;;;15.30;99.90;;;;;;5025797;28;20616;-43
2021/08/04 05:55:53;;;;;;;1.30;1.20;;;15.40;99.90;;;;;;5024572;28;20195;-52
2021/08/04 05:58:21;;;;;;;3.30;1.40;;;15.50;99.90;;;;;;5030652;28;20223;-56
2021/08/04 06:00:47;;;;;;;1.63;1.53;;;15.50;99.90;;;;;;5040317;28;20347;-54
2021/08/04 06:03:14;;;;;;;5.00;1.37;;;15.60;99.90;;;;;;5040138;28;20203;-56
2021/08/04 06:05:41;;;;;;;4.23;1.53;;;15.60;99.90;;;;;;5036441;28;20195;-44
2021/08/04 06:08:10;;;;;;;3.23;1.03;;;15.70;99.90;;;;;;5027503;28;20242;-42
2021/08/04 06:10:37;;;;;;;2.97;1.40;;;15.70;99.90;;;;;;5036224;28;20206;-41
2021/08/04 06:13:04;;;;;;;1.57;1.40;;;15.80;99.90;;;;;;5035762;28;20199;-46
2021/08/04 06:15:32;;;;;;;1.67;1.27;;;15.80;99.90;;;;;;5021842;28;20204;-45
2021/08/04 06:17:58;;;;;;;2.50;1.23;;;15.90;99.90;;;;;;5034480;28;20227;-42
2021/08/04 06:20:25;;;;;;;1.43;1.33;;;15.90;99.90;;;;;;5041700;28;20227;-44
2021/08/04 06:22:52;;;;;;;2.70;1.50;;;15.90;99.90;;;;;;5032387;28;20211;-43
2021/08/04 06:25:18;;;;;;;1.67;1.00;;;16.00;99.90;;;;;;5024434;28;20215;-45
2021/08/04 06:27:45;;;;;;;2.47;1.70;;;16.00;99.90;;;;;;5037662;28;20818;-43
2021/08/04 06:30:12;;;;;;;1.30;1.20;;;16.00;99.90;;;;;;5035203;28;20661;-41
2021/08/04 06:32:40;;;;;;;2.13;1.23;;;16.00;99.90;;;;;;5040124;28;20194;-45
2021/08/04 06:35:09;;;;;;;2.53;1.10;;;16.10;99.90;;;;;;5039148;28;20210;-45
2021/08/04 06:37:36;;;;;;;1.53;1.10;;;16.10;99.90;;;;;;5026309;28;20302;-45
2021/08/04 06:40:03;;;;;;;1.17;1.07;;;16.10;99.90;;;;;;5015806;28;20219;-47
2021/08/04 06:42:30;;;;;;;2.37;1.50;;;16.10;99.90;;;;;;5030946;28;20204;-42
2021/08/04 06:44:57;;;;;;;2.77;1.30;;;16.10;99.90;;;;;;5025068;28;20192;-44
2021/08/04 06:47:23;;;;;;;1.30;1.20;;;16.20;99.90;;;;;;5025721;28;20224;-45
2021/08/04 06:49:51;;;;;;;2.47;1.10;;;16.20;99.90;;;;;;5033953;28;20199;-44
2021/08/04 06:52:18;;;;;;;1.30;1.20;;;16.20;99.90;;;;;;5037559;28;20191;-45
2021/08/04 06:54:45;;;;;;;2.13;1.17;;;16.20;99.90;;;;;;5039606;28;20561;-45
2021/08/04 06:57:11;;;;;;;1.83;1.30;;;16.40;99.90;;;;;;5009116;28;20220;-47
2021/08/04 06:59:38;;;;;;;2.47;1.10;;;16.30;99.90;;;;;;5034665;28;20220;-45
2021/08/04 07:02:05;;;;;;;2.27;1.23;;;16.40;99.90;;;;;;5034669;28;20215;-50
2021/08/04 07:04:32;;;;;;;2.17;1.40;;;16.40;99.90;;;;;;5030556;28;20207;-44
2021/08/04 07:07:01;;;;;;;2.17;1.10;;;16.50;99.90;;;;;;5044943;28;20300;-42
2021/08/04 07:09:28;;;;;;;1.50;1.30;;;16.50;99.90;;;;;;5042544;28;21642;-45
2021/08/04 07:11:55;;;;;;;2.33;1.30;;;16.60;99.90;;;;;;5026371;28;20203;-44
2021/08/04 07:14:22;;;;;;;2.23;1.37;;;16.60;99.90;;;;;;5019991;28;20206;-42
2021/08/04 07:16:49;;;;;;;2.30;1.20;;;16.60;99.90;;;;;;5039260;28;20219;-42
2021/08/04 07:19:17;;;;;;;1.40;1.30;;;16.70;99.90;;;;;;5035078;28;20207;-43
2021/08/04 07:21:44;;;;;;;2.10;1.23;;;16.80;99.90;;;;;;5033146;28;20204;-42
2021/08/04 07:24:12;;;;;;;1.77;1.20;;;16.80;99.90;;;;;;5035054;28;20196;-46
2021/08/04 07:26:40;;;;;;;1.97;1.40;;;16.90;99.90;;;;;;5024119;28;20226;-44
2021/08/04 07:29:07;;;;;;;2.77;1.27;;;16.90;99.90;;;;;;5028836;28;20649;-42
2021/08/04 07:31:35;;;;;;;3.07;1.30;;;17.00;99.90;;;;;;5040552;28;20195;-50
2021/08/04 07:34:02;;;;;;;2.37;1.13;;;17.00;99.90;;;;;;5035917;28;20203;-42
2021/08/04 07:36:28;;;;;;;1.30;1.20;;;17.00;99.90;;;;;;5028643;28;20344;-45
2021/08/04 07:38:55;;;;;;;5.40;1.37;;;17.00;99.90;;;;;;5039547;28;20207;-42
2021/08/04 07:41:23;;;;;;;4.33;1.23;;;17.20;99.90;;;;;;5027842;28;20216;-42
2021/08/04 07:43:49;;;;;;;1.93;1.50;;;17.20;99.90;;;;;;5016698;28;20208;-50
2021/08/04 07:46:18;;;;;;;3.33;1.57;;;17.20;99.90;;;;;;5044077;28;20216;-42
2021/08/04 07:48:44;;;;;;;2.33;1.20;;;17.20;99.90;;;;;;5041978;28;20253;-42
2021/08/04 07:51:11;;;;;;;3.10;1.20;;;17.30;99.90;;;;;;5044705;28;20199;-42
2021/08/04 07:53:38;;;;;;;2.70;1.63;;;17.30;99.90;;;;;;5039462;28;20207;-44
2021/08/04 07:56:05;;;;;;;2.30;0.93;;;17.40;99.90;;;;;;5040271;28;20195;-49
2021/08/04 07:58:32;;;;;;;1.33;1.10;;;17.40;99.90;;;;;;5032142;28;20227;-44
2021/08/04 08:00:59;;;;;;;1.10;0.90;;;17.50;99.90;;;;;;5046653;28;20994;-45
2021/08/04 08:03:26;;;;;;;1.70;1.10;;;17.50;99.90;;;;;;5049692;28;20191;-47
2021/08/04 08:05:52;;;;;;;2.00;1.20;;;17.50;99.90;;;;;;5046190;28;20234;-51
2021/08/04 08:08:19;;;;;;;2.97;0.80;;;17.60;99.90;;;;;;5047869;28;20211;-44
2021/08/04 08:10:49;;;;;;;1.60;1.20;;;17.60;99.90;;;;;;5027348;28;20207;-45
2021/08/04 08:13:16;;;;;;;1.93;0.90;;;17.60;99.90;;;;;;5026259;28;20211;-43
2021/08/04 08:15:44;;;;;;;1.67;1.10;;;17.60;99.90;;;;;;5026398;28;20207;-46
2021/08/04 08:18:11;;;;;;;1.83;1.20;;;17.60;99.90;;;;;;5031327;28;20220;-42
2021/08/04 08:20:40;;;;;;;1.43;1.10;;;17.60;99.90;;;;;;5033965;28;20219;-47
2021/08/04 08:23:08;;;;;;;3.23;0.90;;;17.60;99.90;;;;;;5042707;28;20202;-42
2021/08/04 08:25:35;;;;;;;2.63;0.90;;;17.60;99.90;;;;;;5030172;28;20661;-48
2021/08/04 08:28:02;;;;;;;1.13;1.03;;;17.60;99.90;;;;;;5022042;28;20335;-45
2021/08/04 08:30:29;;;;;;;1.13;1.03;;;17.50;99.90;;;;;;5040813;28;20215;-45
2021/08/04 08:32:57;;;;;;;1.80;1.33;;;17.60;99.90;;;;;;5034555;28;20192;-46
2021/08/04 08:35:23;;;;;;;1.07;1.00;;;17.60;99.90;;;;;;5044707;28;20680;-42
2021/08/04 08:37:50;;;;;;;3.47;1.10;;;17.50;99.90;;;;;;5038026;28;20268;-43
2021/08/04 08:40:18;;;;;;;1.97;1.10;;;17.50;99.90;;;;;;5041444;28;20685;-43
2021/08/04 08:42:45;;;;;;;2.67;1.43;;;17.50;99.90;;;;;;5037529;28;20199;-46
2021/08/04 08:45:12;;;;;;;2.30;1.10;;;17.50;99.90;;;;;;5020942;28;20208;-43
2021/08/04 08:47:40;;;;;;;2.50;1.17;;;17.50;99.90;;;;;;5034064;28;20219;-43
2021/08/04 08:50:09;;;;;;;2.67;1.10;;;17.60;99.90;;;;;;5036013;28;20203;-43
2021/08/04 08:52:36;;;;;;;3.90;1.43;;;17.60;99.90;;;;;;5035784;28;20203;-46
2021/08/04 08:55:05;;;;;;;3.03;1.17;;;17.60;99.90;;;;;;5035201;28;20680;-44
2021/08/04 08:57:31;;;;;;;1.80;1.13;;;17.70;99.90;;;;;;5040873;28;20227;-45
2021/08/04 08:59:59;;;;;;;1.10;1.00;;;17.80;99.90;;;;;;5025941;28;20208;-42
2021/08/04 09:02:25;;;;;;;0.70;0.70;;;17.80;99.90;;;;;;5033952;28;20240;-49
2021/08/04 09:05:00;;;;;;;1.77;1.00;;;17.90;99.90;;;;;;5032228;28;20188;-41
2021/08/04 09:07:32;;;;;;;1.10;0.80;;;18.00;99.90;;;;;;5040727;28;20222;-47
2021/08/04 09:09:59;;;;;;;1.93;1.13;;;18.10;99.90;;;;;;5036255;28;21008;-42
2021/08/04 09:12:25;;;;;;;4.43;0.90;;;18.20;99.90;;;;;;5037413;28;20250;-52
2021/08/04 09:14:52;;;;;;;2.67;1.00;;;18.30;99.90;;;;;;5019525;28;20210;-39
2021/08/04 09:17:19;;;;;;;2.07;1.00;;;18.30;99.90;;;;;;5035033;28;20226;-45
2021/08/04 09:19:47;;;;;;;0.97;0.97;;;18.50;99.90;;;;;;5032642;28;20204;-44
2021/08/04 09:22:19;;;;;;;1.53;1.43;;;18.60;99.90;;;;;;5047421;28;20203;-45
2021/08/04 09:24:55;;;;;;;1.80;1.30;;;18.60;99.90;;;;;;5036964;28;20205;-49
2021/08/04 09:27:41;;;;;;;3.00;1.37;;;18.70;99.90;;;;;;5028370;28;21004;-47
2021/08/04 09:30:08;;;;;;;1.43;1.00;;;18.70;99.90;;;;;;5029559;28;20208;-45
2021/08/04 09:32:35;;;;;;;0.80;0.80;;;18.80;99.90;;;;;;5036585;28;20624;-41
2021/08/04 09:35:08;;;;;;;2.97;1.33;;;18.80;99.90;;;;;;5027029;28;20208;-42
2021/08/04 09:37:35;;;;;;;1.63;0.80;;;18.80;99.90;;;;;;5031622;28;20215;-44
2021/08/04 09:40:03;;;;;;;2.73;1.30;;;18.90;99.90;;;;;;5035794;28;20211;-43
2021/08/04 09:42:52;;;;;;;1.00;1.00;;;18.90;99.90;;;;;;5038008;28;20211;-45
2021/08/04 09:45:21;;;;;;;0.80;0.80;;;18.90;99.90;;;;;;5023612;28;20223;-45
2021/08/04 09:48:02;;;;;;;2.40;1.00;;;18.90;99.90;;;;;;5035578;28;20233;-41
2021/08/04 09:50:48;;;;;;;1.57;1.10;;;19.00;99.90;;;;;;5037184;28;20203;-48
2021/08/04 09:53:26;;;;;;;3.87;1.60;;;19.00;99.90;;;;;;5044366;28;20196;-43
2021/08/04 09:56:12;;;;;;;1.10;1.10;;;19.00;99.90;;;;;;5041922;28;20198;-45
2021/08/04 09:58:41;;;;;;;0.90;0.90;;;19.00;99.90;;;;;;5027383;28;20317;-42
2021/08/04 10:01:11;;;;;;;2.23;1.33;;;19.00;99.90;;;;;;5028868;28;20220;-42
2021/08/04 10:03:38;;;;;;;2.70;1.07;;;19.10;99.90;;;;;;5034279;28;20200;-48
2021/08/04 10:06:05;;;;;;;4.47;1.83;;;19.10;99.90;;;;;;5040864;28;20211;-44
2021/08/04 10:08:31;;;;;;;2.43;1.00;;;19.20;99.90;;;;;;5038945;28;20242;-40
2021/08/04 10:10:58;;;;;;;2.13;1.20;;;19.30;99.90;;;;;;5039214;28;20552;-44
2021/08/04 10:13:28;;;;;;;1.13;1.03;;;19.30;99.90;;;;;;5028877;28;20192;-46
2021/08/04 10:15:58;;;;;;;1.33;1.23;;;19.40;99.90;;;;;;5017509;28;20337;-45
2021/08/04 10:18:27;;;;;;;1.30;1.20;;;19.40;99.90;;;;;;5031556;28;20223;-40
2021/08/04 10:20:57;;;;;;;1.23;1.13;;;19.50;99.90;;;;;;5036923;28;20230;-42
2021/08/04 10:23:25;;;;;;;1.27;1.13;;;19.50;99.90;;;;;;5044869;28;20210;-42
2021/08/04 10:25:52;;;;;;;2.00;1.17;;;19.60;99.90;;;;;;5042052;28;20291;-43
2021/08/04 10:28:20;;;;;;;1.77;1.33;;;19.60;99.90;;;;;;5043594;28;20220;-42
2021/08/04 10:30:48;;;;;;;2.10;1.40;;;19.80;99.90;;;;;;5043952;28;20213;-47
2021/08/04 10:33:15;;;;;;;1.13;1.03;;;19.90;99.90;;;;;;5022449;28;20214;-40
2021/08/04 10:35:44;;;;;;;2.80;1.77;;;19.90;99.90;;;;;;5035770;28;20195;-40
2021/08/04 10:38:15;;;;;;;2.13;1.40;;;20.00;99.90;;;;;;5038900;28;20245;-46
2021/08/04 10:40:42;;;;;;;1.37;1.33;;;20.00;99.90;;;;;;5042726;28;20211;-42
2021/08/04 10:43:09;;;;;;;2.10;1.47;;;20.00;99.90;;;;;;5044410;28;20257;-42
2021/08/04 10:45:36;;;;;;;2.13;1.13;;;20.10;99.90;;;;;;5040755;28;20188;-41
2021/08/04 10:48:25;;;;;;;2.67;1.83;;;20.20;99.90;;;;;;5032947;28;20644;-46
2021/08/04 10:51:12;;;;;;;2.67;1.10;;;20.40;99.90;;;;;;5041819;28;20259;-43
2021/08/04 10:54:17;;;;;;;20.63;2.03;;;20.50;99.90;;;;;;5044673;28;20928;-45
2021/08/04 10:57:06;;;;;;;2.23;1.13;;;20.60;99.90;;;;;;5040195;28;20282;-43
2021/08/04 10:59:34;;;;;;;6.00;1.40;;;20.60;99.90;;;;;;5040320;28;20281;-43
2021/08/04 11:02:28;;;;;;;1.97;1.00;;;20.60;99.90;;;;;;5043595;28;20194;-42
2021/08/04 11:04:57;;;;;;;1.93;1.70;;;20.80;99.90;;;;;;5040871;28;21024;-43
2021/08/04 11:07:24;;;;;;;1.90;1.40;;;20.80;99.90;;;;;;5036840;28;20226;-47
2021/08/04 11:10:03;;;;;;;1.50;1.30;;;20.70;99.90;;;;;;5046337;28;20405;-47
2021/08/04 11:12:48;;;;;;;1.60;1.30;;;20.70;99.90;;;;;;5043316;28;20191;-42
2021/08/04 11:15:32;;;;;;;2.40;1.30;;;20.70;99.90;;;;;;5043446;28;20199;-40
2021/08/04 11:18:08;;;;;;;2.33;1.40;;;20.80;99.90;;;;;;5031421;28;20223;-45
2021/08/04 11:20:38;;;;;;;2.47;1.47;;;20.90;99.90;;;;;;5039842;28;20340;-47
2021/08/04 11:23:08;;;;;;;1.77;1.30;;;20.90;99.90;;;;;;5033327;28;20203;-44
2021/08/04 11:25:41;;;;;;;3.97;1.50;;;20.90;99.90;;;;;;5039674;28;20199;-43
2021/08/04 11:28:21;;;;;;;1.20;1.10;;;21.00;99.90;;;;;;5043400;28;20250;-42
2021/08/04 11:30:52;;;;;;;1.60;1.50;;;21.10;99.90;;;;;;5040271;28;20262;-45
2021/08/04 11:33:33;;;;;;;2.47;1.00;;;21.10;99.90;;;;;;5027666;28;20218;-42
2021/08/04 11:36:13;;;;;;;0.93;0.87;;;21.10;99.90;;;;;;5044992;28;20209;-48
2021/08/04 11:38:42;;;;;;;2.00;0.80;;;21.10;99.90;;;;;;5039557;28;20281;-45
2021/08/04 11:41:18;;;;;;;1.53;1.23;;;21.10;99.90;;;;;;5043545;28;20226;-41
2021/08/04 11:43:45;;;;;;;0.80;0.80;;;21.10;99.90;;;;;;5039775;28;20187;-45
2021/08/04 11:46:34;;;;;;;1.13;1.02;;;21.10;99.90;;;;;;5043295;28;20196;-47
2021/08/04 11:49:02;;;;;;;2.53;1.20;;;21.10;99.90;;;;;;5025091;28;20250;-47
2021/08/04 11:51:38;;;;;;;1.23;0.80;;;21.10;99.90;;;;;;5039181;28;20202;-42
2021/08/04 11:54:06;;;;;;;1.30;0.90;;;21.10;99.90;;;;;;5033298;28;20570;-43
2021/08/04 11:56:33;;;;;;;1.77;0.87;;;21.10;99.90;;;;;;5039664;28;20204;-46
2021/08/04 11:59:02;;;;;;;1.27;1.02;;;21.20;99.90;;;;;;5042524;28;20214;-47
2021/08/04 12:01:30;;;;;;;2.83;1.03;;;21.30;99.90;;;;;;5040332;28;20223;-46
2021/08/04 12:04:07;;;;;;;2.20;1.00;;;21.30;99.90;;;;;;5023527;28;20268;-47
2021/08/04 12:06:37;;;;;;;3.73;1.20;;;21.30;99.90;;;;;;5035509;28;20223;-42
2021/08/04 12:09:21;;;;;;;2.20;1.10;;;21.20;99.90;;;;;;5041689;28;20250;-46
2021/08/04 12:11:49;;;;;;;1.23;0.88;;;21.10;99.90;;;;;;5040404;28;20352;-40
2021/08/04 12:14:18;;;;;;;0.87;0.87;;;21.10;99.90;;;;;;5042895;28;20657;-42
2021/08/04 12:16:46;;;;;;;2.80;0.87;;;21.20;99.90;;;;;;5039653;28;20935;-42
2021/08/04 12:19:29;;;;;;;1.50;1.20;;;21.20;99.90;;;;;;5045054;28;20558;-43
2021/08/04 12:21:58;;;;;;;1.83;0.98;;;21.20;99.90;;;;;;5044200;28;20226;-44
2021/08/04 12:24:24;;;;;;;1.95;1.10;;;21.20;99.90;;;;;;5042896;28;20207;-42
2021/08/04 12:26:51;;;;;;;2.60;1.20;;;21.30;99.90;;;;;;5044297;28;20209;-44
2021/08/04 12:29:20;;;;;;;1.58;0.90;;;21.40;99.90;;;;;;5045920;28;20683;-43
2021/08/04 12:32:20;;;;;;;1.30;1.00;;;21.40;99.90;;;;;;5047502;28;20184;-44
2021/08/04 12:34:58;;;;;;;1.20;1.10;;;21.50;99.90;;;;;;5006180;28;21038;-42
2021/08/04 12:37:27;;;;;;;2.10;1.17;;;21.50;99.90;;;;;;5025164;28;20716;-47
2021/08/04 12:39:56;;;;;;;2.00;1.02;;;21.60;99.90;;;;;;5040381;28;20304;-46
2021/08/04 12:42:23;;;;;;;1.15;0.95;;;21.60;99.90;;;;;;5044895;28;20226;-42
2021/08/04 12:44:49;;;;;;;1.25;1.15;;;21.70;99.90;;;;;;5043921;28;20193;-43
2021/08/04 12:47:17;;;;;;;3.65;0.90;;;21.80;99.90;;;;;;5046425;28;20212;-42
2021/08/04 12:49:45;;;;;;;1.85;0.98;;;21.90;99.90;;;;;;5042218;28;20183;-43
2021/08/04 12:52:13;;;;;;;2.25;0.90;;;21.90;99.90;;;;;;5030487;28;20210;-43
2021/08/04 12:54:41;;;;;;;0.77;0.77;;;22.10;99.90;;;;;;5037447;28;20195;-43
2021/08/04 12:57:20;;;;;;;1.10;0.90;;;22.20;99.90;;;;;;5045952;28;20211;-44